sensor_id;sensor_type;location;lat;lon;timestamp;P1;durP1;ratioP1;P2;durP2;ratioP2
66298;SDS011;53098;47.658;8.578;2023-11-19T00:01:10;9.85;;;3.60;;
66298;SDS011;53098;47.658;8.578;2023-11-19T00:03:36;8.50;;;3.63;;
66298;SDS011;53098;47.658;8.578;2023-11-19T00:06:01;7.93;;;4.28;;
66298;SDS011;53098;47.658;8.578;2023-11-19T00:08:27;7.32;;;3.90;;
66298;SDS011;53098;47.658;8.578;2023-11-19T00:10:55;8.70;;;4.20;;
66298;SDS011;53098;47.658;8.578;2023-11-19T00:13:21;8.27;;;4.25;;
66298;SDS011;53098;47.658;8.578;2023-11-19T00:15:50;8.75;;;3.38;;
66298;SDS011;53098;47.658;8.578;2023-11-19T00:18:18;8.38;;;4.00;;
66298;SDS011;53098;47.658;8.578;2023-11-19T00:20:43;9.65;;;4.20;;
66298;SDS011;53098;47.658;8.578;2023-11-19T00:23:09;8.85;;;4.00;;
66298;SDS011;53098;47.658;8.578;2023-11-19T00:25:34;8.60;;;3.60;;
66298;SDS011;53098;47.658;8.578;2023-11-19T00:28:00;8.68;;;4.10;;
66298;SDS011;53098;47.658;8.578;2023-11-19T00:30:25;9.40;;;5.03;;
66298;SDS011;53098;47.658;8.578;2023-11-19T00:32:50;8.68;;;4.40;;
66298;SDS011;53098;47.658;8.578;2023-11-19T00:35:16;9.52;;;4.20;;
66298;SDS011;53098;47.658;8.578;2023-11-19T00:37:41;9.07;;;3.80;;
66298;SDS011;53098;47.658;8.578;2023-11-19T00:40:07;9.90;;;4.45;;
66298;SDS011;53098;47.658;8.578;2023-11-19T00:42:33;8.85;;;4.47;;
66298;SDS011;53098;47.658;8.578;2023-11-19T00:44:58;7.35;;;3.50;;
66298;SDS011;53098;47.658;8.578;2023-11-19T00:47:23;6.95;;;3.78;;
66298;SDS011;53098;47.658;8.578;2023-11-19T00:49:49;7.25;;;3.72;;
66298;SDS011;53098;47.658;8.578;2023-11-19T00:52:15;7.30;;;3.20;;
66298;SDS011;53098;47.658;8.578;2023-11-19T00:54:41;8.82;;;3.70;;
66298;SDS011;53098;47.658;8.578;2023-11-19T00:57:06;6.95;;;3.25;;
66298;SDS011;53098;47.658;8.578;2023-11-19T00:59:32;8.30;;;3.42;;
66298;SDS011;53098;47.658;8.578;2023-11-19T01:01:57;6.85;;;3.17;;
66298;SDS011;53098;47.658;8.578;2023-11-19T01:04:25;9.75;;;3.55;;
66298;SDS011;53098;47.658;8.578;2023-11-19T01:06:51;8.95;;;3.13;;
66298;SDS011;53098;47.658;8.578;2023-11-19T01:09:19;9.88;;;3.42;;
66298;SDS011;53098;47.658;8.578;2023-11-19T01:11:44;6.85;;;3.13;;
66298;SDS011;53098;47.658;8.578;2023-11-19T01:14:10;9.82;;;3.30;;
66298;SDS011;53098;47.658;8.578;2023-11-19T01:16:35;8.27;;;3.42;;
66298;SDS011;53098;47.658;8.578;2023-11-19T01:19:00;8.88;;;3.45;;
66298;SDS011;53098;47.658;8.578;2023-11-19T01:21:26;7.53;;;3.20;;
66298;SDS011;53098;47.658;8.578;2023-11-19T01:23:51;7.88;;;3.25;;
66298;SDS011;53098;47.658;8.578;2023-11-19T01:26:16;8.40;;;3.63;;
66298;SDS011;53098;47.658;8.578;2023-11-19T01:28:42;7.55;;;3.08;;
66298;SDS011;53098;47.658;8.578;2023-11-19T01:31:07;7.55;;;3.22;;
66298;SDS011;53098;47.658;8.578;2023-11-19T01:33:33;7.63;;;3.35;;
66298;SDS011;53098;47.658;8.578;2023-11-19T01:35:58;8.75;;;3.58;;
66298;SDS011;53098;47.658;8.578;2023-11-19T01:38:24;7.45;;;3.53;;
66298;SDS011;53098;47.658;8.578;2023-11-19T01:40:49;8.25;;;4.10;;
66298;SDS011;53098;47.658;8.578;2023-11-19T01:43:30;8.60;;;3.50;;
66298;SDS011;53098;47.658;8.578;2023-11-19T01:46:00;8.52;;;3.40;;
66298;SDS011;53098;47.658;8.578;2023-11-19T01:48:26;7.75;;;3.92;;
66298;SDS011;53098;47.658;8.578;2023-11-19T01:50:52;8.07;;;3.70;;
66298;SDS011;53098;47.658;8.578;2023-11-19T01:53:18;8.82;;;3.42;;
66298;SDS011;53098;47.658;8.578;2023-11-19T01:55:46;8.25;;;3.38;;
66298;SDS011;53098;47.658;8.578;2023-11-19T01:58:12;8.07;;;3.30;;
66298;SDS011;53098;47.658;8.578;2023-11-19T02:00:38;8.63;;;3.42;;
66298;SDS011;53098;47.658;8.578;2023-11-19T02:03:03;7.82;;;2.95;;
66298;SDS011;53098;47.658;8.578;2023-11-19T02:05:31;9.43;;;3.40;;
66298;SDS011;53098;47.658;8.578;2023-11-19T02:07:56;9.93;;;3.83;;
66298;SDS011;53098;47.658;8.578;2023-11-19T02:10:22;8.90;;;3.80;;
66298;SDS011;53098;47.658;8.578;2023-11-19T02:12:47;9.07;;;3.58;;
66298;SDS011;53098;47.658;8.578;2023-11-19T02:15:12;7.35;;;3.10;;
66298;SDS011;53098;47.658;8.578;2023-11-19T02:17:38;10.57;;;3.40;;
66298;SDS011;53098;47.658;8.578;2023-11-19T02:20:04;7.88;;;2.92;;
66298;SDS011;53098;47.658;8.578;2023-11-19T02:22:30;7.10;;;3.30;;
66298;SDS011;53098;47.658;8.578;2023-11-19T02:24:58;9.13;;;3.40;;
66298;SDS011;53098;47.658;8.578;2023-11-19T02:29:53;6.88;;;2.80;;
66298;SDS011;53098;47.658;8.578;2023-11-19T02:32:19;7.13;;;3.13;;
66298;SDS011;53098;47.658;8.578;2023-11-19T02:34:44;9.88;;;3.42;;
66298;SDS011;53098;47.658;8.578;2023-11-19T02:37:10;6.78;;;2.83;;
66298;SDS011;53098;47.658;8.578;2023-11-19T02:39:35;8.35;;;3.47;;
66298;SDS011;53098;47.658;8.578;2023-11-19T02:42:00;6.85;;;2.90;;
66298;SDS011;53098;47.658;8.578;2023-11-19T02:44:26;10.15;;;3.63;;
66298;SDS011;53098;47.658;8.578;2023-11-19T02:46:51;8.95;;;3.10;;
66298;SDS011;53098;47.658;8.578;2023-11-19T02:49:16;6.20;;;3.00;;
66298;SDS011;53098;47.658;8.578;2023-11-19T02:51:42;7.43;;;3.53;;
66298;SDS011;53098;47.658;8.578;2023-11-19T02:54:07;9.13;;;3.25;;
66298;SDS011;53098;47.658;8.578;2023-11-19T02:56:33;6.88;;;3.15;;
66298;SDS011;53098;47.658;8.578;2023-11-19T02:58:58;8.15;;;3.20;;
66298;SDS011;53098;47.658;8.578;2023-11-19T03:01:24;7.70;;;3.67;;
66298;SDS011;53098;47.658;8.578;2023-11-19T03:03:50;8.05;;;3.22;;
66298;SDS011;53098;47.658;8.578;2023-11-19T03:06:15;7.38;;;3.22;;
66298;SDS011;53098;47.658;8.578;2023-11-19T03:08:41;7.63;;;3.90;;
66298;SDS011;53098;47.658;8.578;2023-11-19T03:11:06;8.98;;;4.03;;
66298;SDS011;53098;47.658;8.578;2023-11-19T03:13:33;7.90;;;4.18;;
66298;SDS011;53098;47.658;8.578;2023-11-19T03:15:58;9.27;;;3.90;;
66298;SDS011;53098;47.658;8.578;2023-11-19T03:18:23;8.80;;;4.10;;
66298;SDS011;53098;47.658;8.578;2023-11-19T03:20:49;8.18;;;4.07;;
66298;SDS011;53098;47.658;8.578;2023-11-19T03:23:14;9.73;;;4.00;;
66298;SDS011;53098;47.658;8.578;2023-11-19T03:25:40;8.07;;;3.92;;
66298;SDS011;53098;47.658;8.578;2023-11-19T03:28:05;8.95;;;3.78;;
66298;SDS011;53098;47.658;8.578;2023-11-19T03:30:31;9.25;;;4.93;;
66298;SDS011;53098;47.658;8.578;2023-11-19T03:32:57;8.63;;;3.90;;
66298;SDS011;53098;47.658;8.578;2023-11-19T03:35:23;10.50;;;4.32;;
66298;SDS011;53098;47.658;8.578;2023-11-19T03:37:49;9.25;;;3.97;;
66298;SDS011;53098;47.658;8.578;2023-11-19T03:40:15;7.70;;;3.90;;
66298;SDS011;53098;47.658;8.578;2023-11-19T03:42:40;8.93;;;4.50;;
66298;SDS011;53098;47.658;8.578;2023-11-19T03:45:06;8.30;;;3.97;;
66298;SDS011;53098;47.658;8.578;2023-11-19T03:47:32;9.70;;;4.53;;
66298;SDS011;53098;47.658;8.578;2023-11-19T03:49:57;9.65;;;4.07;;
66298;SDS011;53098;47.658;8.578;2023-11-19T03:52:23;9.60;;;4.68;;
66298;SDS011;53098;47.658;8.578;2023-11-19T03:54:48;8.27;;;4.30;;
66298;SDS011;53098;47.658;8.578;2023-11-19T03:57:13;8.18;;;4.40;;
66298;SDS011;53098;47.658;8.578;2023-11-19T03:59:39;11.70;;;4.43;;
66298;SDS011;53098;47.658;8.578;2023-11-19T04:02:04;9.93;;;4.20;;
66298;SDS011;53098;47.658;8.578;2023-11-19T04:04:30;11.98;;;4.10;;
66298;SDS011;53098;47.658;8.578;2023-11-19T04:06:55;10.90;;;5.28;;
66298;SDS011;53098;47.658;8.578;2023-11-19T04:09:21;13.55;;;5.68;;
66298;SDS011;53098;47.658;8.578;2023-11-19T04:11:47;14.32;;;6.55;;
66298;SDS011;53098;47.658;8.578;2023-11-19T04:14:13;13.25;;;6.53;;
66298;SDS011;53098;47.658;8.578;2023-11-19T04:16:39;15.65;;;7.40;;
66298;SDS011;53098;47.658;8.578;2023-11-19T04:19:04;18.10;;;8.10;;
66298;SDS011;53098;47.658;8.578;2023-11-19T04:21:30;14.43;;;6.22;;
66298;SDS011;53098;47.658;8.578;2023-11-19T04:23:56;15.50;;;6.05;;
66298;SDS011;53098;47.658;8.578;2023-11-19T04:26:21;12.20;;;4.90;;
66298;SDS011;53098;47.658;8.578;2023-11-19T04:28:47;12.30;;;5.13;;
66298;SDS011;53098;47.658;8.578;2023-11-19T04:31:12;9.63;;;4.63;;
66298;SDS011;53098;47.658;8.578;2023-11-19T04:33:37;11.75;;;4.78;;
66298;SDS011;53098;47.658;8.578;2023-11-19T04:36:03;8.70;;;3.67;;
66298;SDS011;53098;47.658;8.578;2023-11-19T04:38:28;9.40;;;4.13;;
66298;SDS011;53098;47.658;8.578;2023-11-19T04:40:54;9.60;;;4.47;;
66298;SDS011;53098;47.658;8.578;2023-11-19T04:43:19;10.70;;;4.32;;
66298;SDS011;53098;47.658;8.578;2023-11-19T04:45:45;8.82;;;4.32;;
66298;SDS011;53098;47.658;8.578;2023-11-19T04:48:10;10.27;;;4.88;;
66298;SDS011;53098;47.658;8.578;2023-11-19T04:50:36;11.93;;;4.47;;
66298;SDS011;53098;47.658;8.578;2023-11-19T04:53:02;9.43;;;4.40;;
66298;SDS011;53098;47.658;8.578;2023-11-19T04:55:27;9.30;;;4.35;;
66298;SDS011;53098;47.658;8.578;2023-11-19T04:57:53;9.32;;;4.38;;
66298;SDS011;53098;47.658;8.578;2023-11-19T05:00:19;10.25;;;4.43;;
66298;SDS011;53098;47.658;8.578;2023-11-19T05:02:44;10.85;;;5.00;;
66298;SDS011;53098;47.658;8.578;2023-11-19T05:05:10;11.95;;;6.55;;
66298;SDS011;53098;47.658;8.578;2023-11-19T05:07:35;11.88;;;5.97;;
66298;SDS011;53098;47.658;8.578;2023-11-19T05:10:00;12.48;;;6.43;;
66298;SDS011;53098;47.658;8.578;2023-11-19T05:12:26;10.25;;;5.00;;
66298;SDS011;53098;47.658;8.578;2023-11-19T05:14:51;13.18;;;6.38;;
66298;SDS011;53098;47.658;8.578;2023-11-19T05:17:17;12.07;;;6.20;;
66298;SDS011;53098;47.658;8.578;2023-11-19T05:19:42;10.40;;;4.45;;
66298;SDS011;53098;47.658;8.578;2023-11-19T05:22:08;9.43;;;4.68;;
66298;SDS011;53098;47.658;8.578;2023-11-19T05:24:33;9.35;;;4.93;;
66298;SDS011;53098;47.658;8.578;2023-11-19T05:26:59;7.68;;;3.60;;
66298;SDS011;53098;47.658;8.578;2023-11-19T05:29:24;6.45;;;3.40;;
66298;SDS011;53098;47.658;8.578;2023-11-19T05:31:50;6.70;;;3.20;;
66298;SDS011;53098;47.658;8.578;2023-11-19T05:34:15;6.95;;;3.63;;
66298;SDS011;53098;47.658;8.578;2023-11-19T05:36:40;7.28;;;3.33;;
66298;SDS011;53098;47.658;8.578;2023-11-19T05:39:06;6.25;;;2.92;;
66298;SDS011;53098;47.658;8.578;2023-11-19T05:41:31;5.97;;;2.92;;
66298;SDS011;53098;47.658;8.578;2023-11-19T05:43:57;5.85;;;2.60;;
66298;SDS011;53098;47.658;8.578;2023-11-19T05:46:22;6.70;;;3.10;;
66298;SDS011;53098;47.658;8.578;2023-11-19T05:48:47;6.10;;;2.80;;
66298;SDS011;53098;47.658;8.578;2023-11-19T05:51:13;4.97;;;2.28;;
66298;SDS011;53098;47.658;8.578;2023-11-19T05:53:39;5.75;;;2.90;;
66298;SDS011;53098;47.658;8.578;2023-11-19T05:56:04;5.13;;;2.50;;
66298;SDS011;53098;47.658;8.578;2023-11-19T05:58:29;6.10;;;2.60;;
66298;SDS011;53098;47.658;8.578;2023-11-19T06:00:55;6.22;;;3.28;;
66298;SDS011;53098;47.658;8.578;2023-11-19T06:03:21;5.97;;;2.85;;
66298;SDS011;53098;47.658;8.578;2023-11-19T06:05:47;5.82;;;2.63;;
66298;SDS011;53098;47.658;8.578;2023-11-19T06:08:13;6.70;;;3.05;;
66298;SDS011;53098;47.658;8.578;2023-11-19T06:10:39;6.57;;;2.90;;
66298;SDS011;53098;47.658;8.578;2023-11-19T06:13:06;6.40;;;2.70;;
66298;SDS011;53098;47.658;8.578;2023-11-19T06:15:31;5.78;;;2.60;;
66298;SDS011;53098;47.658;8.578;2023-11-19T06:17:57;5.82;;;2.53;;
66298;SDS011;53098;47.658;8.578;2023-11-19T06:20:23;5.40;;;2.30;;
66298;SDS011;53098;47.658;8.578;2023-11-19T06:22:48;5.20;;;2.50;;
66298;SDS011;53098;47.658;8.578;2023-11-19T06:25:14;5.88;;;2.65;;
66298;SDS011;53098;47.658;8.578;2023-11-19T06:27:39;6.43;;;2.88;;
66298;SDS011;53098;47.658;8.578;2023-11-19T06:30:05;6.00;;;2.55;;
66298;SDS011;53098;47.658;8.578;2023-11-19T06:32:32;7.57;;;2.72;;
66298;SDS011;53098;47.658;8.578;2023-11-19T06:34:57;5.57;;;2.20;;
66298;SDS011;53098;47.658;8.578;2023-11-19T06:37:22;5.45;;;2.55;;
66298;SDS011;53098;47.658;8.578;2023-11-19T06:39:48;4.63;;;2.33;;
66298;SDS011;53098;47.658;8.578;2023-11-19T06:42:13;4.57;;;2.10;;
66298;SDS011;53098;47.658;8.578;2023-11-19T06:44:38;4.78;;;2.22;;
66298;SDS011;53098;47.658;8.578;2023-11-19T06:47:04;5.25;;;2.05;;
66298;SDS011;53098;47.658;8.578;2023-11-19T06:49:29;4.18;;;1.90;;
66298;SDS011;53098;47.658;8.578;2023-11-19T06:51:55;4.60;;;2.10;;
66298;SDS011;53098;47.658;8.578;2023-11-19T06:54:20;6.93;;;2.50;;
66298;SDS011;53098;47.658;8.578;2023-11-19T06:56:46;5.80;;;2.03;;
66298;SDS011;53098;47.658;8.578;2023-11-19T06:59:11;4.93;;;2.20;;
66298;SDS011;53098;47.658;8.578;2023-11-19T07:01:36;4.72;;;2.10;;
66298;SDS011;53098;47.658;8.578;2023-11-19T07:04:02;5.97;;;2.60;;
66298;SDS011;53098;47.658;8.578;2023-11-19T07:06:28;4.97;;;2.53;;
66298;SDS011;53098;47.658;8.578;2023-11-19T07:08:53;5.38;;;2.50;;
66298;SDS011;53098;47.658;8.578;2023-11-19T07:11:19;4.90;;;2.13;;
66298;SDS011;53098;47.658;8.578;2023-11-19T07:13:44;6.55;;;2.50;;
66298;SDS011;53098;47.658;8.578;2023-11-19T07:16:09;7.40;;;3.10;;
66298;SDS011;53098;47.658;8.578;2023-11-19T07:18:35;4.88;;;2.10;;
66298;SDS011;53098;47.658;8.578;2023-11-19T07:21:01;7.25;;;3.10;;
66298;SDS011;53098;47.658;8.578;2023-11-19T07:23:26;11.95;;;4.45;;
66298;SDS011;53098;47.658;8.578;2023-11-19T07:25:52;9.05;;;4.00;;
66298;SDS011;53098;47.658;8.578;2023-11-19T07:28:17;8.45;;;3.72;;
66298;SDS011;53098;47.658;8.578;2023-11-19T07:30:42;11.25;;;5.05;;
66298;SDS011;53098;47.658;8.578;2023-11-19T07:33:08;6.47;;;3.22;;
66298;SDS011;53098;47.658;8.578;2023-11-19T07:35:33;7.10;;;2.75;;
66298;SDS011;53098;47.658;8.578;2023-11-19T07:37:59;7.28;;;3.53;;
66298;SDS011;53098;47.658;8.578;2023-11-19T07:40:24;9.38;;;3.92;;
66298;SDS011;53098;47.658;8.578;2023-11-19T07:42:50;11.73;;;3.92;;
66298;SDS011;53098;47.658;8.578;2023-11-19T07:45:16;7.85;;;3.65;;
66298;SDS011;53098;47.658;8.578;2023-11-19T07:47:42;7.13;;;2.80;;
66298;SDS011;53098;47.658;8.578;2023-11-19T07:50:07;6.70;;;2.70;;
66298;SDS011;53098;47.658;8.578;2023-11-19T07:52:33;8.13;;;2.78;;
66298;SDS011;53098;47.658;8.578;2023-11-19T07:54:59;5.10;;;2.50;;
66298;SDS011;53098;47.658;8.578;2023-11-19T07:57:24;6.43;;;2.97;;
66298;SDS011;53098;47.658;8.578;2023-11-19T07:59:50;4.43;;;2.13;;
66298;SDS011;53098;47.658;8.578;2023-11-19T08:02:15;5.40;;;2.35;;
66298;SDS011;53098;47.658;8.578;2023-11-19T08:04:41;4.30;;;2.00;;
66298;SDS011;53098;47.658;8.578;2023-11-19T08:07:06;4.95;;;1.98;;
66298;SDS011;53098;47.658;8.578;2023-11-19T08:09:32;5.38;;;2.17;;
66298;SDS011;53098;47.658;8.578;2023-11-19T08:11:57;5.55;;;2.10;;
66298;SDS011;53098;47.658;8.578;2023-11-19T08:14:23;6.10;;;1.95;;
66298;SDS011;53098;47.658;8.578;2023-11-19T08:16:48;6.03;;;2.08;;
66298;SDS011;53098;47.658;8.578;2023-11-19T08:19:14;4.93;;;2.25;;
66298;SDS011;53098;47.658;8.578;2023-11-19T08:21:39;5.57;;;2.53;;
66298;SDS011;53098;47.658;8.578;2023-11-19T08:24:04;3.97;;;1.90;;
66298;SDS011;53098;47.658;8.578;2023-11-19T08:26:30;6.93;;;2.75;;
66298;SDS011;53098;47.658;8.578;2023-11-19T08:28:56;7.70;;;3.10;;
66298;SDS011;53098;47.658;8.578;2023-11-19T08:31:21;5.55;;;2.45;;
66298;SDS011;53098;47.658;8.578;2023-11-19T08:33:46;6.93;;;2.50;;
66298;SDS011;53098;47.658;8.578;2023-11-19T08:36:15;5.88;;;2.58;;
66298;SDS011;53098;47.658;8.578;2023-11-19T08:38:41;4.38;;;2.00;;
66298;SDS011;53098;47.658;8.578;2023-11-19T08:41:06;4.38;;;1.98;;
66298;SDS011;53098;47.658;8.578;2023-11-19T08:43:32;5.72;;;2.05;;
66298;SDS011;53098;47.658;8.578;2023-11-19T08:45:57;5.32;;;2.03;;
66298;SDS011;53098;47.658;8.578;2023-11-19T08:48:23;4.00;;;1.77;;
66298;SDS011;53098;47.658;8.578;2023-11-19T08:50:48;4.78;;;1.90;;
66298;SDS011;53098;47.658;8.578;2023-11-19T08:53:14;5.22;;;2.03;;
66298;SDS011;53098;47.658;8.578;2023-11-19T08:55:40;4.97;;;2.03;;
66298;SDS011;53098;47.658;8.578;2023-11-19T08:58:05;5.35;;;2.35;;
66298;SDS011;53098;47.658;8.578;2023-11-19T09:00:31;4.20;;;1.90;;
66298;SDS011;53098;47.658;8.578;2023-11-19T09:02:56;6.15;;;2.10;;
66298;SDS011;53098;47.658;8.578;2023-11-19T09:05:22;4.60;;;1.70;;
66298;SDS011;53098;47.658;8.578;2023-11-19T09:07:47;4.10;;;1.95;;
66298;SDS011;53098;47.658;8.578;2023-11-19T09:10:13;5.20;;;2.38;;
66298;SDS011;53098;47.658;8.578;2023-11-19T09:12:39;4.35;;;1.75;;
66298;SDS011;53098;47.658;8.578;2023-11-19T09:15:04;2.83;;;1.50;;
66298;SDS011;53098;47.658;8.578;2023-11-19T09:17:30;4.47;;;1.50;;
66298;SDS011;53098;47.658;8.578;2023-11-19T09:19:55;4.18;;;2.03;;
66298;SDS011;53098;47.658;8.578;2023-11-19T09:22:21;3.30;;;1.58;;
66298;SDS011;53098;47.658;8.578;2023-11-19T09:24:46;3.35;;;1.73;;
66298;SDS011;53098;47.658;8.578;2023-11-19T09:27:12;3.92;;;1.42;;
66298;SDS011;53098;47.658;8.578;2023-11-19T09:29:37;2.60;;;1.20;;
66298;SDS011;53098;47.658;8.578;2023-11-19T09:32:02;1.70;;;1.00;;
66298;SDS011;53098;47.658;8.578;2023-11-19T09:34:28;2.33;;;1.13;;
66298;SDS011;53098;47.658;8.578;2023-11-19T09:36:53;1.75;;;0.90;;
66298;SDS011;53098;47.658;8.578;2023-11-19T09:39:19;3.55;;;1.63;;
66298;SDS011;53098;47.658;8.578;2023-11-19T09:41:44;2.72;;;1.10;;
66298;SDS011;53098;47.658;8.578;2023-11-19T09:44:10;3.63;;;0.90;;
66298;SDS011;53098;47.658;8.578;2023-11-19T09:46:36;1.98;;;0.85;;
66298;SDS011;53098;47.658;8.578;2023-11-19T09:49:02;2.10;;;1.08;;
66298;SDS011;53098;47.658;8.578;2023-11-19T09:51:28;1.92;;;1.02;;
66298;SDS011;53098;47.658;8.578;2023-11-19T09:53:53;4.10;;;1.73;;
66298;SDS011;53098;47.658;8.578;2023-11-19T09:56:19;3.65;;;1.73;;
66298;SDS011;53098;47.658;8.578;2023-11-19T09:58:44;5.65;;;1.90;;
66298;SDS011;53098;47.658;8.578;2023-11-19T10:01:10;5.90;;;2.00;;
66298;SDS011;53098;47.658;8.578;2023-11-19T10:03:35;3.85;;;1.90;;
66298;SDS011;53098;47.658;8.578;2023-11-19T10:06:01;3.42;;;1.52;;
66298;SDS011;53098;47.658;8.578;2023-11-19T10:08:27;3.72;;;1.40;;
66298;SDS011;53098;47.658;8.578;2023-11-19T10:10:54;2.45;;;1.40;;
66298;SDS011;53098;47.658;8.578;2023-11-19T10:13:19;2.53;;;1.30;;
66298;SDS011;53098;47.658;8.578;2023-11-19T10:15:50;4.32;;;2.00;;
66298;SDS011;53098;47.658;8.578;2023-11-19T10:18:17;2.10;;;1.20;;
66298;SDS011;53098;47.658;8.578;2023-11-19T10:20:43;1.13;;;0.80;;
66298;SDS011;53098;47.658;8.578;2023-11-19T10:23:08;2.20;;;1.08;;
66298;SDS011;53098;47.658;8.578;2023-11-19T10:25:34;3.17;;;1.20;;
66298;SDS011;53098;47.658;8.578;2023-11-19T10:27:59;2.17;;;0.90;;
66298;SDS011;53098;47.658;8.578;2023-11-19T10:30:26;2.25;;;1.00;;
66298;SDS011;53098;47.658;8.578;2023-11-19T10:35:34;2.13;;;1.20;;
66298;SDS011;53098;47.658;8.578;2023-11-19T10:38:01;3.50;;;1.27;;
66298;SDS011;53098;47.658;8.578;2023-11-19T10:43:04;4.53;;;1.40;;
66298;SDS011;53098;47.658;8.578;2023-11-19T10:45:29;4.50;;;1.20;;
66298;SDS011;53098;47.658;8.578;2023-11-19T10:47:54;3.05;;;1.38;;
66298;SDS011;53098;47.658;8.578;2023-11-19T10:50:21;4.13;;;1.40;;
66298;SDS011;53098;47.658;8.578;2023-11-19T10:52:47;5.65;;;2.00;;
66298;SDS011;53098;47.658;8.578;2023-11-19T10:55:13;5.22;;;1.63;;
66298;SDS011;53098;47.658;8.578;2023-11-19T10:57:43;3.83;;;1.50;;
66298;SDS011;53098;47.658;8.578;2023-11-19T11:00:11;4.15;;;1.75;;
66298;SDS011;53098;47.658;8.578;2023-11-19T11:02:43;4.00;;;1.10;;
66298;SDS011;53098;47.658;8.578;2023-11-19T11:05:13;6.20;;;2.03;;
66298;SDS011;53098;47.658;8.578;2023-11-19T11:07:39;5.43;;;2.10;;
66298;SDS011;53098;47.658;8.578;2023-11-19T11:10:05;8.77;;;2.97;;
66298;SDS011;53098;47.658;8.578;2023-11-19T11:12:33;4.43;;;1.40;;
66298;SDS011;53098;47.658;8.578;2023-11-19T11:15:01;5.97;;;2.50;;
66298;SDS011;53098;47.658;8.578;2023-11-19T11:17:29;3.78;;;1.77;;
66298;SDS011;53098;47.658;8.578;2023-11-19T11:19:57;5.30;;;1.50;;
66298;SDS011;53098;47.658;8.578;2023-11-19T11:22:22;3.15;;;1.30;;
66298;SDS011;53098;47.658;8.578;2023-11-19T11:27:57;3.17;;;1.27;;
66298;SDS011;53098;47.658;8.578;2023-11-19T11:30:39;4.20;;;1.52;;
66298;SDS011;53098;47.658;8.578;2023-11-19T11:33:26;3.20;;;1.42;;
66298;SDS011;53098;47.658;8.578;2023-11-19T11:36:11;1.27;;;0.90;;
66298;SDS011;53098;47.658;8.578;2023-11-19T11:38:42;4.07;;;1.73;;
66298;SDS011;53098;47.658;8.578;2023-11-19T11:41:15;3.40;;;1.75;;
66298;SDS011;53098;47.658;8.578;2023-11-19T11:43:44;4.15;;;1.40;;
66298;SDS011;53098;47.658;8.578;2023-11-19T11:49:00;4.10;;;1.75;;
66298;SDS011;53098;47.658;8.578;2023-11-19T12:02:07;4.47;;;1.42;;
66298;SDS011;53098;47.658;8.578;2023-11-19T12:04:34;5.88;;;1.55;;
66298;SDS011;53098;47.658;8.578;2023-11-19T12:07:06;3.47;;;1.60;;
66298;SDS011;53098;47.658;8.578;2023-11-19T12:09:33;7.20;;;1.77;;
66298;SDS011;53098;47.658;8.578;2023-11-19T12:20:00;7.10;;;2.65;;
66298;SDS011;53098;47.658;8.578;2023-11-19T12:22:26;3.53;;;1.52;;
66298;SDS011;53098;47.658;8.578;2023-11-19T12:24:53;5.72;;;2.38;;
66298;SDS011;53098;47.658;8.578;2023-11-19T12:27:19;6.38;;;2.70;;
66298;SDS011;53098;47.658;8.578;2023-11-19T12:29:45;3.75;;;1.48;;
66298;SDS011;53098;47.658;8.578;2023-11-19T12:32:10;7.88;;;3.35;;
66298;SDS011;53098;47.658;8.578;2023-11-19T12:34:35;11.00;;;4.15;;
66298;SDS011;53098;47.658;8.578;2023-11-19T12:37:03;9.88;;;3.47;;
66298;SDS011;53098;47.658;8.578;2023-11-19T12:39:31;8.20;;;3.20;;
66298;SDS011;53098;47.658;8.578;2023-11-19T12:41:57;5.18;;;1.73;;
66298;SDS011;53098;47.658;8.578;2023-11-19T12:44:23;3.65;;;1.42;;
66298;SDS011;53098;47.658;8.578;2023-11-19T12:47:04;1.90;;;1.15;;
66298;SDS011;53098;47.658;8.578;2023-11-19T12:49:31;4.10;;;1.73;;
66298;SDS011;53098;47.658;8.578;2023-11-19T12:51:56;4.22;;;1.55;;
66298;SDS011;53098;47.658;8.578;2023-11-19T12:54:31;6.68;;;2.63;;
66298;SDS011;53098;47.658;8.578;2023-11-19T12:57:00;4.80;;;2.10;;
66298;SDS011;53098;47.658;8.578;2023-11-19T12:59:26;4.95;;;1.75;;
66298;SDS011;53098;47.658;8.578;2023-11-19T13:01:55;4.68;;;1.35;;
66298;SDS011;53098;47.658;8.578;2023-11-19T13:04:27;6.05;;;2.00;;
66298;SDS011;53098;47.658;8.578;2023-11-19T13:06:54;4.70;;;1.90;;
66298;SDS011;53098;47.658;8.578;2023-11-19T13:09:26;4.70;;;2.10;;
66298;SDS011;53098;47.658;8.578;2023-11-19T13:11:52;6.57;;;2.72;;
66298;SDS011;53098;47.658;8.578;2023-11-19T13:14:19;4.50;;;1.52;;
66298;SDS011;53098;47.658;8.578;2023-11-19T13:16:45;3.05;;;1.33;;
66298;SDS011;53098;47.658;8.578;2023-11-19T13:19:11;4.28;;;1.20;;
66298;SDS011;53098;47.658;8.578;2023-11-19T13:21:36;7.03;;;2.10;;
66298;SDS011;53098;47.658;8.578;2023-11-19T13:24:02;3.15;;;1.33;;
66298;SDS011;53098;47.658;8.578;2023-11-19T13:26:27;3.22;;;1.10;;
66298;SDS011;53098;47.658;8.578;2023-11-19T13:28:53;6.40;;;2.58;;
66298;SDS011;53098;47.658;8.578;2023-11-19T13:31:18;6.70;;;2.47;;
66298;SDS011;53098;47.658;8.578;2023-11-19T13:33:44;4.65;;;1.52;;
66298;SDS011;53098;47.658;8.578;2023-11-19T13:36:09;3.72;;;1.45;;
66298;SDS011;53098;47.658;8.578;2023-11-19T13:38:35;3.33;;;1.55;;
66298;SDS011;53098;47.658;8.578;2023-11-19T13:41:01;1.65;;;0.80;;
66298;SDS011;53098;47.658;8.578;2023-11-19T13:43:26;5.55;;;0.70;;
66298;SDS011;53098;47.658;8.578;2023-11-19T13:45:52;1.55;;;0.80;;
66298;SDS011;53098;47.658;8.578;2023-11-19T13:48:17;4.20;;;0.60;;
66298;SDS011;53098;47.658;8.578;2023-11-19T13:50:43;1.08;;;0.40;;
66298;SDS011;53098;47.658;8.578;2023-11-19T13:53:08;2.70;;;0.90;;
66298;SDS011;53098;47.658;8.578;2023-11-19T13:55:33;2.40;;;0.60;;
66298;SDS011;53098;47.658;8.578;2023-11-19T13:57:59;2.10;;;0.80;;
66298;SDS011;53098;47.658;8.578;2023-11-19T14:00:24;3.95;;;0.90;;
66298;SDS011;53098;47.658;8.578;2023-11-19T14:02:50;2.30;;;0.80;;
66298;SDS011;53098;47.658;8.578;2023-11-19T14:05:15;1.58;;;0.80;;
66298;SDS011;53098;47.658;8.578;2023-11-19T14:07:41;1.65;;;0.80;;
66298;SDS011;53098;47.658;8.578;2023-11-19T14:10:07;1.40;;;0.63;;
66298;SDS011;53098;47.658;8.578;2023-11-19T14:12:33;0.80;;;0.63;;
66298;SDS011;53098;47.658;8.578;2023-11-19T14:14:58;6.10;;;0.80;;
66298;SDS011;53098;47.658;8.578;2023-11-19T14:17:24;2.83;;;0.90;;
66298;SDS011;53098;47.658;8.578;2023-11-19T14:19:49;1.55;;;0.73;;
66298;SDS011;53098;47.658;8.578;2023-11-19T14:22:15;1.50;;;0.90;;
66298;SDS011;53098;47.658;8.578;2023-11-19T14:24:40;3.70;;;0.80;;
66298;SDS011;53098;47.658;8.578;2023-11-19T14:27:05;0.75;;;0.65;;
66298;SDS011;53098;47.658;8.578;2023-11-19T14:29:31;3.65;;;1.30;;
66298;SDS011;53098;47.658;8.578;2023-11-19T14:31:56;1.48;;;0.73;;
66298;SDS011;53098;47.658;8.578;2023-11-19T14:34:22;2.53;;;0.90;;
66298;SDS011;53098;47.658;8.578;2023-11-19T14:36:47;0.88;;;0.60;;
66298;SDS011;53098;47.658;8.578;2023-11-19T14:39:13;3.08;;;1.00;;
66298;SDS011;53098;47.658;8.578;2023-11-19T14:41:38;4.85;;;0.73;;
66298;SDS011;53098;47.658;8.578;2023-11-19T14:44:04;2.80;;;1.10;;
66298;SDS011;53098;47.658;8.578;2023-11-19T14:46:30;1.30;;;0.60;;
66298;SDS011;53098;47.658;8.578;2023-11-19T14:48:55;1.85;;;0.68;;
66298;SDS011;53098;47.658;8.578;2023-11-19T14:51:21;3.60;;;1.58;;
66298;SDS011;53098;47.658;8.578;2023-11-19T14:53:46;3.20;;;1.00;;
66298;SDS011;53098;47.658;8.578;2023-11-19T14:56:12;5.22;;;1.65;;
66298;SDS011;53098;47.658;8.578;2023-11-19T14:58:39;3.53;;;0.90;;
66298;SDS011;53098;47.658;8.578;2023-11-19T15:01:05;5.82;;;1.48;;
66298;SDS011;53098;47.658;8.578;2023-11-19T15:03:31;2.10;;;0.90;;
66298;SDS011;53098;47.658;8.578;2023-11-19T15:05:56;3.58;;;1.40;;
66298;SDS011;53098;47.658;8.578;2023-11-19T15:08:22;4.65;;;0.88;;
66298;SDS011;53098;47.658;8.578;2023-11-19T15:10:47;1.67;;;0.70;;